createdAt,value
2017-08-09T00:01:02.417Z,0
2017-08-09T00:02:12.272Z,0
2017-08-09T00:03:21.476Z,0
2017-08-09T00:04:31.011Z,0
2017-08-09T00:05:39.893Z,0
2017-08-09T00:06:49.259Z,0
2017-08-09T00:07:58.790Z,0
2017-08-09T00:09:07.999Z,0
2017-08-09T00:10:17.203Z,0
2017-08-09T00:11:26.410Z,0
2017-08-09T00:12:36.317Z,0
2017-08-09T00:13:46.163Z,0
2017-08-09T00:14:55.373Z,0
2017-08-09T00:16:05.229Z,0
2017-08-09T00:17:14.437Z,0
2017-08-09T00:18:23.476Z,0
2017-08-09T00:19:32.686Z,0
2017-08-09T00:20:41.568Z,0
2017-08-09T00:21:51.096Z,0
2017-08-09T00:23:00.305Z,0
2017-08-09T00:24:10.466Z,0
2017-08-09T00:25:20.321Z,0
2017-08-09T00:26:29.853Z,0
2017-08-09T00:27:39.702Z,0
2017-08-09T00:28:48.588Z,0
2017-08-09T00:29:57.474Z,0
2017-08-09T00:31:07.000Z,0
2017-08-09T00:32:16.854Z,0
2017-08-09T00:33:26.413Z,0
2017-08-09T00:34:35.616Z,0
2017-08-09T00:35:44.665Z,0
2017-08-09T00:36:53.872Z,0
2017-08-09T00:38:03.404Z,0
2017-08-09T00:39:12.607Z,0
2017-08-09T00:40:21.810Z,0
2017-08-09T00:41:31.118Z,0
2017-08-09T00:42:40.647Z,0
2017-08-09T00:43:49.849Z,0
2017-08-09T00:44:59.053Z,0
2017-08-09T00:46:08.264Z,0
2017-08-09T00:47:18.166Z,0
2017-08-09T00:48:27.370Z,0
2017-08-09T00:49:36.906Z,0
2017-08-09T00:50:46.435Z,0
2017-08-09T00:51:55.315Z,0
2017-08-09T00:53:04.444Z,0
2017-08-09T00:54:13.327Z,0
2017-08-09T00:55:22.544Z,0
2017-08-09T00:56:31.750Z,0
2017-08-09T00:57:40.639Z,0
2017-08-09T00:58:49.998Z,0
2017-08-09T00:59:59.534Z,0
2017-08-09T01:01:09.390Z,0
2017-08-09T01:02:18.917Z,0
2017-08-09T01:03:28.445Z,0
2017-08-09T01:04:37.955Z,0
2017-08-09T01:05:46.838Z,0
2017-08-09T01:06:55.721Z,0
2017-08-09T01:08:05.577Z,0
2017-08-09T01:09:14.779Z,0
2017-08-09T01:10:24.183Z,0
2017-08-09T01:11:33.387Z,0
2017-08-09T01:12:42.270Z,0
2017-08-09T01:13:51.799Z,0
2017-08-09T01:15:01.673Z,0
2017-08-09T01:16:11.026Z,0
2017-08-09T01:17:20.882Z,0
2017-08-09T01:18:30.093Z,0
2017-08-09T01:19:39.298Z,0
2017-08-09T01:20:48.180Z,0
2017-08-09T01:21:57.431Z,0
2017-08-09T01:23:06.637Z,0
2017-08-09T01:24:16.167Z,0
2017-08-09T01:25:25.702Z,0
2017-08-09T01:26:35.557Z,0
2017-08-09T01:27:44.438Z,0
2017-08-09T01:28:53.325Z,0
2017-08-09T01:30:02.532Z,0
2017-08-09T01:31:11.419Z,0
2017-08-09T01:32:20.944Z,0
2017-08-09T01:33:30.308Z,0
2017-08-09T01:34:39.514Z,0
2017-08-09T01:35:49.048Z,0
2017-08-09T01:36:58.571Z,0
2017-08-09T01:38:07.779Z,0
2017-08-09T01:39:17.253Z,0
2017-08-09T01:40:27.429Z,0
2017-08-09T01:41:36.311Z,0
2017-08-09T01:42:45.513Z,0
2017-08-09T01:43:55.045Z,0
2017-08-09T01:45:05.056Z,0
2017-08-09T01:46:14.271Z,0
2017-08-09T01:47:23.801Z,0
2017-08-09T01:48:33.333Z,0
2017-08-09T01:49:42.218Z,0
2017-08-09T01:50:51.304Z,0
2017-08-09T01:52:00.521Z,0
2017-08-09T01:53:09.398Z,0
2017-08-09T01:54:18.284Z,0
2017-08-09T01:55:27.493Z,0
2017-08-09T01:56:36.692Z,0
2017-08-09T01:57:45.910Z,0
2017-08-09T01:58:55.445Z,0
2017-08-09T02:00:05.297Z,0
2017-08-09T02:01:14.827Z,0
2017-08-09T02:02:24.506Z,0
2017-08-09T02:03:34.038Z,0
2017-08-09T02:04:43.567Z,0
2017-08-09T02:05:52.773Z,0
2017-08-09T02:07:01.659Z,0
2017-08-09T02:08:11.018Z,0
2017-08-09T02:09:19.905Z,0
2017-08-09T02:10:29.437Z,0
2017-08-09T02:11:38.316Z,0
2017-08-09T02:12:47.850Z,0
2017-08-09T02:13:57.491Z,0
2017-08-09T02:15:06.696Z,0
2017-08-09T02:16:15.578Z,0
2017-08-09T02:17:25.108Z,0
2017-08-09T02:18:33.984Z,0
2017-08-09T02:19:43.613Z,0
2017-08-09T02:20:53.482Z,0
2017-08-09T02:22:03.335Z,0
2017-08-09T02:23:12.862Z,0
2017-08-09T02:24:22.401Z,0
2017-08-09T02:25:32.077Z,0
2017-08-09T02:26:40.962Z,0
2017-08-09T02:27:50.494Z,0
2017-08-09T02:29:00.357Z,0
2017-08-09T02:30:09.573Z,0
2017-08-09T02:31:18.556Z,0
2017-08-09T02:32:28.417Z,0
2017-08-09T02:33:37.636Z,0
2017-08-09T02:34:46.851Z,0
2017-08-09T02:35:56.384Z,0
2017-08-09T02:37:06.391Z,0
2017-08-09T02:38:15.277Z,0
2017-08-09T02:39:24.480Z,0
2017-08-09T02:40:34.022Z,0
2017-08-09T02:41:43.231Z,0
2017-08-09T02:42:53.557Z,0
2017-08-09T02:44:03.409Z,0
2017-08-09T02:45:13.585Z,0
2017-08-09T02:46:23.788Z,0
2017-08-09T02:47:32.991Z,0
2017-08-09T02:48:42.914Z,0
2017-08-09T02:49:52.440Z,0
2017-08-09T02:51:02.291Z,0
2017-08-09T02:52:11.517Z,0
2017-08-09T02:53:21.050Z,0
2017-08-09T02:54:31.006Z,0
2017-08-09T02:55:40.214Z,0
2017-08-09T02:56:49.747Z,0
2017-08-09T02:57:59.593Z,0
2017-08-09T02:59:08.796Z,0
2017-08-09T03:00:18.062Z,0
2017-08-09T03:01:27.265Z,0
2017-08-09T03:02:36.793Z,0
2017-08-09T03:03:46.330Z,0
2017-08-09T03:04:55.860Z,0
2017-08-09T03:06:05.771Z,0
2017-08-09T03:07:15.301Z,0
2017-08-09T03:08:24.858Z,0
2017-08-09T03:09:33.739Z,0
2017-08-09T03:10:42.618Z,0
2017-08-09T03:11:52.402Z,0
2017-08-09T03:13:02.599Z,0
2017-08-09T03:14:11.810Z,0
2017-08-09T03:15:20.695Z,0
2017-08-09T03:16:29.899Z,0
2017-08-09T03:17:39.164Z,0
2017-08-09T03:18:48.690Z,0
2017-08-09T03:19:58.218Z,0
2017-08-09T03:21:07.447Z,0
2017-08-09T03:22:16.974Z,0
2017-08-09T03:23:26.353Z,0
2017-08-09T03:24:36.206Z,0
2017-08-09T03:25:45.407Z,0
2017-08-09T03:26:55.278Z,0
2017-08-09T03:28:04.482Z,4
2017-08-09T03:29:13.836Z,4
2017-08-09T03:30:23.377Z,4
2017-08-09T03:31:32.911Z,0
2017-08-09T03:32:41.791Z,4
2017-08-09T03:33:50.998Z,4
2017-08-09T03:35:00.861Z,8
2017-08-09T03:36:10.718Z,4
2017-08-09T03:37:20.579Z,8
2017-08-09T03:38:29.462Z,8
2017-08-09T03:39:38.990Z,12
2017-08-09T03:40:48.613Z,12
2017-08-09T03:41:58.463Z,12
2017-08-09T03:43:07.689Z,16
2017-08-09T03:44:16.893Z,16
2017-08-09T03:45:26.422Z,20
2017-08-09T03:46:35.770Z,20
2017-08-09T03:47:44.982Z,24
2017-08-09T03:48:54.834Z,28
2017-08-09T03:50:04.371Z,32
2017-08-09T03:51:13.902Z,36
2017-08-09T03:52:23.408Z,40
2017-08-09T03:53:33.269Z,40
2017-08-09T03:54:42.477Z,48
2017-08-09T03:55:52.014Z,52
2017-08-09T03:57:01.220Z,56
2017-08-09T03:58:10.684Z,64
2017-08-09T03:59:19.887Z,68
2017-08-09T04:00:29.414Z,76
2017-08-09T04:01:39.268Z,84
2017-08-09T04:02:48.799Z,88
2017-08-09T04:03:58.474Z,96
2017-08-09T04:05:07.687Z,96
2017-08-09T04:06:16.893Z,108
2017-08-09T04:07:26.105Z,116
2017-08-09T04:08:35.310Z,120
2017-08-09T04:09:45.140Z,128
2017-08-09T04:10:54.019Z,136
2017-08-09T04:12:03.545Z,140
2017-08-09T04:13:13.400Z,152
2017-08-09T04:14:22.935Z,168
2017-08-09T04:15:32.298Z,180
2017-08-09T04:16:41.507Z,196
2017-08-09T04:17:50.712Z,220
2017-08-09T04:18:59.915Z,236
2017-08-09T04:20:09.442Z,248
2017-08-09T04:21:19.067Z,260
2017-08-09T04:22:28.599Z,268
2017-08-09T04:23:37.806Z,284
2017-08-09T04:24:47.340Z,304
2017-08-09T04:25:56.866Z,320
2017-08-09T04:27:06.500Z,328
2017-08-09T04:28:15.389Z,336
2017-08-09T04:29:24.595Z,348
2017-08-09T04:30:34.447Z,356
2017-08-09T04:31:43.980Z,356
2017-08-09T04:32:53.655Z,316
2017-08-09T04:34:02.873Z,308
2017-08-09T04:35:12.414Z,336
2017-08-09T04:36:22.266Z,368
2017-08-09T04:37:31.471Z,400
2017-08-09T04:38:40.777Z,444
2017-08-09T04:39:49.656Z,460
2017-08-09T04:40:58.541Z,452
2017-08-09T04:42:07.750Z,468
2017-08-09T04:43:16.955Z,480
2017-08-09T04:44:26.805Z,496
2017-08-09T04:45:36.657Z,500
2017-08-09T04:46:45.874Z,488
2017-08-09T04:47:54.757Z,464
2017-08-09T04:49:03.968Z,452
2017-08-09T04:50:13.223Z,456
2017-08-09T04:51:22.757Z,468
2017-08-09T04:52:31.961Z,480
2017-08-09T04:53:41.165Z,500
2017-08-09T04:54:50.047Z,516
2017-08-09T04:55:59.630Z,536
2017-08-09T04:57:09.489Z,552
2017-08-09T04:58:19.016Z,576
2017-08-09T04:59:27.902Z,620
2017-08-09T05:00:37.439Z,696
2017-08-09T05:01:47.120Z,768
2017-08-09T05:02:56.645Z,840
2017-08-09T05:04:05.853Z,864
2017-08-09T05:05:15.410Z,888
2017-08-09T05:06:24.937Z,924
2017-08-09T05:07:33.980Z,984
2017-08-09T05:08:43.195Z,1048
2017-08-09T05:09:52.401Z,1052
2017-08-09T05:11:01.608Z,1032
2017-08-09T05:12:11.141Z,1060
2017-08-09T05:13:20.075Z,1100
2017-08-09T05:14:29.280Z,1172
2017-08-09T05:15:38.164Z,1164
2017-08-09T05:16:47.370Z,1168
2017-08-09T05:17:56.579Z,1168
2017-08-09T05:19:06.258Z,1156
2017-08-09T05:20:15.788Z,1108
2017-08-09T05:21:24.996Z,1064
2017-08-09T05:22:35.175Z,1040
2017-08-09T05:23:44.705Z,1012
2017-08-09T05:24:54.009Z,964
2017-08-09T05:26:03.544Z,900
2017-08-09T05:27:12.760Z,860
2017-08-09T05:28:22.609Z,840
2017-08-09T05:29:32.144Z,844
2017-08-09T05:30:41.883Z,824
2017-08-09T05:31:50.772Z,808
2017-08-09T05:32:59.977Z,816
2017-08-09T05:34:09.539Z,860
2017-08-09T05:35:18.820Z,872
2017-08-09T05:36:28.349Z,892
2017-08-09T05:37:38.217Z,856
2017-08-09T05:38:47.426Z,840
2017-08-09T05:39:56.631Z,836
2017-08-09T05:41:06.175Z,844
2017-08-09T05:42:15.385Z,856
2017-08-09T05:43:24.300Z,868
2017-08-09T05:44:33.506Z,916
2017-08-09T05:45:43.053Z,924
2017-08-09T05:46:52.906Z,928
2017-08-09T05:48:02.433Z,940
2017-08-09T05:49:11.317Z,956
2017-08-09T05:50:20.851Z,972
2017-08-09T05:51:30.057Z,996
2017-08-09T05:52:39.267Z,1028
2017-08-09T05:53:48.472Z,1076
2017-08-09T05:54:58.328Z,1156
2017-08-09T05:56:07.918Z,1256
2017-08-09T05:57:17.127Z,1388
2017-08-09T05:58:26.671Z,1416
2017-08-09T05:59:35.976Z,1344
2017-08-09T06:00:45.216Z,1376
2017-08-09T06:01:55.170Z,1396
2017-08-09T06:03:04.401Z,1464
2017-08-09T06:04:13.946Z,1560
2017-08-09T06:05:23.808Z,1568
2017-08-09T06:06:33.080Z,1628
2017-08-09T06:07:42.438Z,1756
2017-08-09T06:08:52.301Z,1856
2017-08-09T06:10:01.183Z,1928
2017-08-09T06:11:10.716Z,2008
2017-08-09T06:12:19.617Z,1896
2017-08-09T06:13:29.126Z,1504
2017-08-09T06:14:38.661Z,1352
2017-08-09T06:15:47.867Z,1308
2017-08-09T06:16:57.074Z,1404
2017-08-09T06:18:06.608Z,1476
2017-08-09T06:19:15.995Z,1408
2017-08-09T06:20:25.521Z,1268
2017-08-09T06:21:35.703Z,1156
2017-08-09T06:22:44.596Z,1100
2017-08-09T06:23:53.804Z,1076
2017-08-09T06:25:03.168Z,1076
2017-08-09T06:26:13.041Z,1072
2017-08-09T06:27:22.574Z,1068
2017-08-09T06:28:32.179Z,1064
2017-08-09T06:29:41.386Z,1076
2017-08-09T06:30:50.921Z,1072
2017-08-09T06:32:00.773Z,1076
2017-08-09T06:33:10.317Z,1096
2017-08-09T06:34:19.863Z,1072
2017-08-09T06:35:29.069Z,1088
2017-08-09T06:36:38.431Z,1084
2017-08-09T06:37:47.641Z,1068
2017-08-09T06:38:56.853Z,1084
2017-08-09T06:40:06.714Z,1076
2017-08-09T06:41:16.570Z,1068
2017-08-09T06:42:26.403Z,1076
2017-08-09T06:43:36.259Z,1072
2017-08-09T06:44:45.785Z,1076
2017-08-09T06:45:54.999Z,1072
2017-08-09T06:47:04.858Z,1084
2017-08-09T06:48:15.232Z,1088
2017-08-09T06:49:24.769Z,1088
2017-08-09T06:50:34.321Z,1100
2017-08-09T06:51:43.539Z,1080
2017-08-09T06:52:52.432Z,1096
2017-08-09T06:54:02.666Z,1092
2017-08-09T06:55:12.203Z,1128
2017-08-09T06:56:21.084Z,1132
2017-08-09T06:57:30.630Z,1104
2017-08-09T06:58:39.511Z,1088
2017-08-09T06:59:49.152Z,1084
2017-08-09T07:00:58.691Z,1072
2017-08-09T07:02:07.587Z,1080
2017-08-09T07:03:16.483Z,1084
2017-08-09T07:04:25.814Z,1080
2017-08-09T07:05:35.400Z,1088
2017-08-09T07:06:44.496Z,1084
2017-08-09T07:07:53.928Z,1104
2017-08-09T07:09:03.643Z,1092
2017-08-09T07:10:13.342Z,1108
2017-08-09T07:11:23.604Z,1096
2017-08-09T07:12:32.943Z,1096
2017-08-09T07:13:42.361Z,1120
2017-08-09T07:14:51.990Z,1136
2017-08-09T07:16:01.984Z,1116
2017-08-09T07:17:11.694Z,1128
2017-08-09T07:18:20.902Z,1136
2017-08-09T07:19:30.509Z,1152
2017-08-09T07:20:39.437Z,1152
2017-08-09T07:21:48.727Z,1164
2017-08-09T07:22:58.369Z,1168
2017-08-09T07:24:08.719Z,1184
2017-08-09T07:25:17.663Z,1196
2017-08-09T07:26:27.630Z,1220
2017-08-09T07:27:37.239Z,1240
2017-08-09T07:28:46.392Z,1248
2017-08-09T07:29:55.862Z,1268
2017-08-09T07:31:05.907Z,1280
2017-08-09T07:32:15.539Z,1308
2017-08-09T07:33:24.802Z,1320
2017-08-09T07:34:34.715Z,1296
2017-08-09T07:35:44.515Z,1304
2017-08-09T07:36:54.645Z,1284
2017-08-09T07:38:04.040Z,1280
2017-08-09T07:39:13.434Z,1296
2017-08-09T07:40:23.639Z,1288
2017-08-09T07:41:33.004Z,1336
2017-08-09T07:42:41.954Z,1336
2017-08-09T07:43:51.616Z,1352
2017-08-09T07:45:01.292Z,1368
2017-08-09T07:46:11.940Z,1380
2017-08-09T07:47:21.507Z,1364
2017-08-09T07:48:30.734Z,1368
2017-08-09T07:49:39.962Z,1360
2017-08-09T07:50:49.499Z,1372
2017-08-09T07:51:58.544Z,1352
2017-08-09T07:53:08.427Z,1364
2017-08-09T07:54:18.340Z,1388
2017-08-09T07:55:28.568Z,1424
2017-08-09T07:56:38.429Z,1456
2017-08-09T07:57:47.799Z,1496
2017-08-09T07:58:57.010Z,1740
2017-08-09T08:00:06.882Z,2076
2017-08-09T08:01:16.740Z,1724
2017-08-09T08:02:25.954Z,1648
2017-08-09T08:03:35.656Z,1652
2017-08-09T08:04:44.863Z,1720
2017-08-09T08:05:53.744Z,2048
2017-08-09T08:07:03.285Z,2012
2017-08-09T08:08:12.195Z,3492
2017-08-09T08:09:22.256Z,2372
2017-08-09T08:10:31.568Z,2172
2017-08-09T08:11:40.835Z,2336
2017-08-09T08:12:50.099Z,1996
2017-08-09T08:13:59.005Z,2544
2017-08-09T08:15:08.752Z,3172
2017-08-09T08:16:18.040Z,2832
2017-08-09T08:17:27.277Z,2716
2017-08-09T08:18:36.810Z,2804
2017-08-09T08:19:46.346Z,2700
2017-08-09T08:20:55.858Z,3336
2017-08-09T08:22:05.394Z,4268
2017-08-09T08:23:14.662Z,4008
2017-08-09T08:24:24.525Z,2932
2017-08-09T08:25:33.414Z,3144
2017-08-09T08:26:42.727Z,2936
2017-08-09T08:27:51.624Z,3760
2017-08-09T08:29:01.496Z,4036
2017-08-09T08:30:11.409Z,5256
2017-08-09T08:31:20.961Z,4184
2017-08-09T08:32:30.259Z,4564
2017-08-09T08:33:39.524Z,4196
2017-08-09T08:34:48.737Z,3908
2017-08-09T08:35:57.947Z,3364
2017-08-09T08:37:07.480Z,3500
2017-08-09T08:38:17.400Z,3500
2017-08-09T08:39:26.956Z,3764
2017-08-09T08:40:36.529Z,4684
2017-08-09T08:41:46.167Z,4296
2017-08-09T08:42:56.051Z,4704
2017-08-09T08:44:05.959Z,4344
2017-08-09T08:45:15.612Z,4048
2017-08-09T08:46:25.513Z,4892
2017-08-09T08:47:34.458Z,4932
2017-08-09T08:48:44.018Z,4100
2017-08-09T08:49:53.623Z,4532
2017-08-09T08:51:03.807Z,5496
2017-08-09T08:52:13.373Z,5088
2017-08-09T08:53:22.650Z,5132
2017-08-09T08:54:31.868Z,4280
2017-08-09T08:55:41.286Z,5024
2017-08-09T08:56:50.506Z,5660
2017-08-09T08:58:00.047Z,5340
2017-08-09T08:59:09.259Z,5268
2017-08-09T09:00:18.482Z,5412
2017-08-09T09:01:28.252Z,5136
2017-08-09T09:02:37.478Z,5264
2017-08-09T09:03:47.013Z,5708
2017-08-09T09:04:56.325Z,5980
2017-08-09T09:06:05.551Z,5904
2017-08-09T09:07:15.397Z,5664
2017-08-09T09:08:24.655Z,6180
2017-08-09T09:09:33.992Z,6300
2017-08-09T09:10:43.998Z,5724
2017-08-09T09:11:53.978Z,4216
2017-08-09T09:13:03.712Z,3016
2017-08-09T09:14:13.300Z,2352
2017-08-09T09:15:23.560Z,2032
2017-08-09T09:16:32.788Z,1668
2017-08-09T09:17:42.336Z,1872
2017-08-09T09:18:51.971Z,1856
2017-08-09T09:20:01.183Z,1636
2017-08-09T09:21:11.101Z,1228
2017-08-09T09:22:20.967Z,1528
2017-08-09T09:23:30.329Z,3132
2017-08-09T09:24:40.024Z,2516
2017-08-09T09:25:49.258Z,3720
2017-08-09T09:26:59.115Z,5976
2017-08-09T09:28:08.648Z,6300
2017-08-09T09:29:17.536Z,5332
2017-08-09T09:30:27.124Z,4500
2017-08-09T09:31:36.010Z,4616
2017-08-09T09:32:45.219Z,4592
2017-08-09T09:33:54.767Z,4528
2017-08-09T09:35:03.992Z,4204
2017-08-09T09:36:13.684Z,3716
2017-08-09T09:37:22.571Z,4116
2017-08-09T09:38:31.787Z,3720
2017-08-09T09:39:41.336Z,4568
2017-08-09T09:40:50.870Z,5028
2017-08-09T09:42:00.382Z,5236
2017-08-09T09:43:09.929Z,5364
2017-08-09T09:44:18.820Z,5960
2017-08-09T09:45:28.678Z,6900
2017-08-09T09:46:38.550Z,6460
2017-08-09T09:47:47.808Z,6984
2017-08-09T09:48:57.347Z,7732
2017-08-09T09:50:07.205Z,7288
2017-08-09T09:51:16.418Z,6708
2017-08-09T09:52:25.634Z,6040
2017-08-09T09:53:34.899Z,5212
2017-08-09T09:54:44.428Z,4796
2017-08-09T09:55:53.339Z,5972
2017-08-09T09:57:02.870Z,6280
2017-08-09T09:58:12.418Z,6024
2017-08-09T09:59:21.805Z,7920
2017-08-09T10:00:31.038Z,7880
2017-08-09T10:01:40.573Z,8204
2017-08-09T10:02:49.486Z,8032
2017-08-09T10:03:59.017Z,5348
2017-08-09T10:05:08.707Z,3468
2017-08-09T10:06:17.922Z,2516
2017-08-09T10:07:27.458Z,2584
2017-08-09T10:08:36.674Z,5244
2017-08-09T10:09:46.208Z,5928
2017-08-09T10:10:55.843Z,4588
2017-08-09T10:12:05.701Z,4092
2017-08-09T10:13:14.915Z,4396
2017-08-09T10:14:24.456Z,5480
2017-08-09T10:15:33.991Z,6336
2017-08-09T10:16:43.407Z,6624
2017-08-09T10:17:52.956Z,5120
2017-08-09T10:19:02.487Z,6580
2017-08-09T10:20:11.376Z,6864
2017-08-09T10:21:20.913Z,6244
2017-08-09T10:22:30.984Z,5320
2017-08-09T10:23:40.523Z,4500
2017-08-09T10:24:49.737Z,4524
2017-08-09T10:25:59.322Z,4192
2017-08-09T10:27:08.533Z,4228
2017-08-09T10:28:17.791Z,3720
2017-08-09T10:29:27.660Z,4592
2017-08-09T10:30:36.870Z,6816
2017-08-09T10:31:45.782Z,4924
2017-08-09T10:32:55.315Z,7000
2017-08-09T10:34:04.677Z,5936
2017-08-09T10:35:14.237Z,6588
2017-08-09T10:36:23.126Z,9540
2017-08-09T10:37:32.339Z,8200
2017-08-09T10:38:41.229Z,5760
2017-08-09T10:39:51.250Z,5080
2017-08-09T10:41:00.782Z,5200
2017-08-09T10:42:10.965Z,5920
2017-08-09T10:43:20.180Z,5752
2017-08-09T10:44:29.399Z,7568
2017-08-09T10:45:38.984Z,6640
2017-08-09T10:46:48.197Z,9276
2017-08-09T10:47:57.082Z,8972
2017-08-09T10:49:05.981Z,8272
2017-08-09T10:50:15.518Z,8384
2017-08-09T10:51:25.430Z,6888
2017-08-09T10:52:34.963Z,6712
2017-08-09T10:53:44.820Z,5268
2017-08-09T10:54:54.358Z,4180
2017-08-09T10:56:03.904Z,3120
2017-08-09T10:57:13.558Z,3380
2017-08-09T10:58:23.418Z,4604
2017-08-09T10:59:32.639Z,3448
2017-08-09T11:00:41.849Z,2636
2017-08-09T11:01:51.383Z,2748
2017-08-09T11:03:01.403Z,2980
2017-08-09T11:04:11.255Z,2904
2017-08-09T11:05:20.798Z,3696
2017-08-09T11:06:30.011Z,5400
2017-08-09T11:07:39.229Z,7092
2017-08-09T11:08:49.195Z,9020
2017-08-09T11:09:58.412Z,8316
2017-08-09T11:11:07.948Z,6312
2017-08-09T11:12:16.839Z,6976
2017-08-09T11:13:26.379Z,7512
2017-08-09T11:14:36.109Z,7764
2017-08-09T11:15:45.645Z,7632
2017-08-09T11:16:54.856Z,7992
2017-08-09T11:18:03.741Z,8044
2017-08-09T11:19:12.635Z,6100
2017-08-09T11:20:21.671Z,5804
2017-08-09T11:21:30.880Z,5272
2017-08-09T11:22:40.419Z,6216
2017-08-09T11:23:49.629Z,6652
2017-08-09T11:24:59.810Z,6920
2017-08-09T11:26:09.123Z,6384
2017-08-09T11:27:18.015Z,5712
2017-08-09T11:28:27.231Z,4896
2017-08-09T11:29:37.093Z,4224
2017-08-09T11:30:46.317Z,4220
2017-08-09T11:31:55.252Z,4992
2017-08-09T11:33:04.785Z,7316
2017-08-09T11:34:14.011Z,6696
2017-08-09T11:35:22.898Z,6108
2017-08-09T11:36:32.771Z,6492
2017-08-09T11:37:41.811Z,5432
2017-08-09T11:38:51.027Z,4212
2017-08-09T11:40:00.238Z,5080
2017-08-09T11:41:09.771Z,7076
2017-08-09T11:42:19.307Z,7252
2017-08-09T11:43:28.839Z,6312
2017-08-09T11:44:37.734Z,6176
2017-08-09T11:45:46.945Z,6996
2017-08-09T11:46:56.159Z,7076
2017-08-09T11:48:05.050Z,9668
2017-08-09T11:49:13.938Z,5708
2017-08-09T11:50:23.479Z,5468
2017-08-09T11:51:32.694Z,6132
2017-08-09T11:52:42.234Z,5600
2017-08-09T11:53:52.433Z,4692
2017-08-09T11:55:02.219Z,6616
2017-08-09T11:56:11.758Z,9884
2017-08-09T11:57:21.291Z,11256
2017-08-09T11:58:30.512Z,12976
2017-08-09T11:59:39.722Z,12420
2017-08-09T12:00:48.715Z,14180
2017-08-09T12:01:58.911Z,12908
2017-08-09T12:03:08.777Z,12828
2017-08-09T12:04:18.633Z,13200
2017-08-09T12:05:27.529Z,13460
2017-08-09T12:06:36.740Z,13176
2017-08-09T12:07:46.299Z,10660
2017-08-09T12:08:55.507Z,12096
2017-08-09T12:10:04.772Z,7916
2017-08-09T12:11:14.308Z,8396
2017-08-09T12:12:23.573Z,8744
2017-08-09T12:13:33.111Z,9868
2017-08-09T12:14:42.972Z,20832
2017-08-09T12:15:52.513Z,14876
2017-08-09T12:17:02.048Z,14592
2017-08-09T12:18:11.990Z,32064
2017-08-09T12:19:21.853Z,17248
2017-08-09T12:20:31.401Z,21952
2017-08-09T12:21:40.295Z,21888
2017-08-09T12:22:50.483Z,51968
2017-08-09T12:24:00.224Z,60352
2017-08-09T12:25:09.762Z,20992
2017-08-09T12:26:19.633Z,10636
2017-08-09T12:27:29.196Z,35104
2017-08-09T12:28:39.067Z,30048
2017-08-09T12:29:48.609Z,12328
2017-08-09T12:30:58.796Z,13364
2017-08-09T12:32:08.338Z,9784
2017-08-09T12:33:17.876Z,6444
2017-08-09T12:34:27.740Z,7440
2017-08-09T12:35:37.655Z,23104
2017-08-09T12:36:46.873Z,34432
2017-08-09T12:37:56.410Z,12620
2017-08-09T12:39:06.273Z,13616
2017-08-09T12:40:16.134Z,8584
2017-08-09T12:41:26.153Z,9364
2017-08-09T12:42:36.021Z,36544
2017-08-09T12:43:45.573Z,58528
2017-08-09T12:44:54.791Z,51968
2017-08-09T12:46:04.976Z,43264
2017-08-09T12:47:14.618Z,47424
2017-08-09T12:48:24.550Z,36352
2017-08-09T12:49:33.781Z,40544
2017-08-09T12:50:43.020Z,41952
2017-08-09T12:51:52.240Z,20160
2017-08-09T12:53:01.520Z,7956
2017-08-09T12:54:10.738Z,52608
2017-08-09T12:55:20.283Z,62400
2017-08-09T12:56:30.147Z,57472
2017-08-09T12:57:39.397Z,46560
2017-08-09T12:58:48.776Z,64768
2017-08-09T12:59:57.993Z,66176
2017-08-09T13:01:07.231Z,59264
2017-08-09T13:02:16.801Z,23200
2017-08-09T13:03:26.352Z,8680
2017-08-09T13:04:35.515Z,30240
2017-08-09T13:05:44.767Z,64832
2017-08-09T13:06:54.326Z,34752
2017-08-09T13:08:03.922Z,31072
2017-08-09T13:09:13.470Z,50240
2017-08-09T13:10:23.638Z,8280
2017-08-09T13:11:32.863Z,12224
2017-08-09T13:12:41.766Z,5212
2017-08-09T13:13:50.990Z,4852
2017-08-09T13:15:00.121Z,5016
2017-08-09T13:16:09.427Z,4416
2017-08-09T13:17:18.990Z,5812
2017-08-09T13:18:28.601Z,11012
2017-08-09T13:19:38.244Z,15052
2017-08-09T13:20:47.517Z,5964
2017-08-09T13:22:26.483Z,19296
2017-08-09T13:23:35.728Z,68032
2017-08-09T13:24:45.360Z,68576
2017-08-09T13:25:54.605Z,67552
2017-08-09T13:27:04.155Z,59776
2017-08-09T13:28:13.701Z,62080
2017-08-09T13:29:22.937Z,66400
2017-08-09T13:30:32.183Z,69120
2017-08-09T13:31:41.417Z,60352
2017-08-09T13:32:51.282Z,64512
2017-08-09T13:34:00.850Z,8556
2017-08-09T13:35:10.757Z,8720
2017-08-09T13:36:19.661Z,8696
2017-08-09T13:37:29.704Z,55200
2017-08-09T13:38:38.601Z,12984
2017-08-09T13:39:47.510Z,8216
2017-08-09T13:40:56.736Z,59040
2017-08-09T13:42:06.606Z,8396
2017-08-09T13:43:16.505Z,7548
2017-08-09T13:44:26.047Z,60448
2017-08-09T13:45:35.914Z,11584
2017-08-09T13:46:44.809Z,11556
2017-08-09T13:47:54.029Z,12672
2017-08-09T13:49:02.929Z,11844
2017-08-09T13:50:12.826Z,8592
2017-08-09T13:51:22.064Z,6744
2017-08-09T13:52:31.654Z,40768
2017-08-09T13:53:40.989Z,42592
2017-08-09T13:54:50.215Z,38272
2017-08-09T13:55:59.114Z,10744
2017-08-09T13:57:08.986Z,33536
2017-08-09T13:58:18.999Z,9868
2017-08-09T13:59:28.218Z,10196
2017-08-09T14:00:37.445Z,6892
2017-08-09T14:01:46.345Z,4648
2017-08-09T14:02:55.601Z,8920
2017-08-09T14:04:05.677Z,15220
2017-08-09T14:05:14.575Z,39296
2017-08-09T14:06:23.805Z,28320
2017-08-09T14:07:32.760Z,11688
2017-08-09T14:08:42.309Z,49568
2017-08-09T14:09:52.051Z,10256
2017-08-09T14:11:01.915Z,12720
2017-08-09T14:12:11.131Z,47008
2017-08-09T14:13:20.352Z,50528
2017-08-09T14:14:29.890Z,56544
2017-08-09T14:15:39.261Z,58528
2017-08-09T14:16:48.160Z,55008
2017-08-09T14:17:57.387Z,54528
2017-08-09T14:19:06.948Z,56768
2017-08-09T14:20:16.523Z,56608
2017-08-09T14:21:26.276Z,59328
2017-08-09T14:22:35.820Z,50816
2017-08-09T14:23:45.368Z,55104
2017-08-09T14:24:55.244Z,41888
2017-08-09T14:26:04.464Z,59328
2017-08-09T14:27:13.519Z,57696
2017-08-09T14:28:23.392Z,31936
2017-08-09T14:29:32.634Z,19040
2017-08-09T14:30:42.199Z,44608
2017-08-09T14:31:51.102Z,59424
2017-08-09T14:33:00.802Z,59360
2017-08-09T14:34:10.349Z,59680
2017-08-09T14:35:19.255Z,60608
2017-08-09T14:36:29.130Z,56288
2017-08-09T14:37:38.358Z,9360
2017-08-09T14:38:47.969Z,60640
2017-08-09T14:39:56.867Z,9296
2017-08-09T14:41:06.417Z,7260
2017-08-09T14:42:16.287Z,54784
2017-08-09T14:43:25.193Z,57600
2017-08-09T14:44:34.506Z,54624
2017-08-09T14:45:43.795Z,59072
2017-08-09T14:46:53.071Z,60896
2017-08-09T14:48:02.875Z,58912
2017-08-09T14:49:12.474Z,56960
2017-08-09T14:50:21.895Z,56512
2017-08-09T14:51:31.745Z,55072
2017-08-09T14:52:41.318Z,55744
2017-08-09T14:53:50.219Z,60288
2017-08-09T14:54:59.773Z,59808
2017-08-09T14:56:10.314Z,58624
2017-08-09T14:57:19.546Z,60800
2017-08-09T14:58:28.769Z,60032
2017-08-09T14:59:37.709Z,56128
2017-08-09T15:00:46.691Z,54912
2017-08-09T15:01:55.817Z,38048
2017-08-09T15:03:05.448Z,19808
2017-08-09T15:04:14.821Z,40608
2017-08-09T15:05:25.287Z,52800
2017-08-09T15:06:35.187Z,48992
2017-08-09T15:07:44.538Z,8416
2017-08-09T15:08:53.834Z,6796
2017-08-09T15:10:02.801Z,7484
2017-08-09T15:11:12.031Z,6832
2017-08-09T15:12:21.586Z,6676
2017-08-09T15:13:31.231Z,33760
2017-08-09T15:14:40.169Z,51744
2017-08-09T15:15:49.129Z,42976
2017-08-09T15:16:58.088Z,6592
2017-08-09T15:18:07.992Z,5744
2017-08-09T15:19:17.642Z,47808
2017-08-09T15:20:27.062Z,47328
2017-08-09T15:21:36.867Z,28256
2017-08-09T15:22:45.884Z,51456
2017-08-09T15:23:55.410Z,48992
2017-08-09T15:25:04.947Z,5232
2017-08-09T15:26:14.171Z,3860
2017-08-09T15:27:23.076Z,3780
2017-08-09T15:28:31.971Z,4592
2017-08-09T15:29:41.514Z,5736
2017-08-09T15:30:51.208Z,39904
2017-08-09T15:32:00.108Z,44544
2017-08-09T15:33:09.971Z,46816
2017-08-09T15:34:19.531Z,46592
2017-08-09T15:35:28.751Z,48000
2017-08-09T15:36:38.224Z,46912
2017-08-09T15:37:47.119Z,45312
2017-08-09T15:38:56.672Z,38592
2017-08-09T15:40:05.892Z,36096
2017-08-09T15:41:14.801Z,42432
2017-08-09T15:42:24.073Z,40160
2017-08-09T15:43:33.312Z,32736
2017-08-09T15:44:43.205Z,35776
2017-08-09T15:45:52.111Z,39648